createdAt,value
2023-01-17T00:02:19.248Z,16.55
2023-01-17T00:05:05.525Z,14.65
2023-01-17T00:07:51.819Z,12.35
2023-01-17T00:10:23.290Z,9.98
2023-01-17T00:13:00.733Z,11.15
2023-01-17T00:15:30.740Z,12.35
2023-01-17T00:17:58.756Z,15.08
2023-01-17T00:20:48.323Z,16.77
2023-01-17T00:23:39.114Z,17.45
2023-01-17T00:26:14.721Z,14.33
2023-01-17T00:28:44.330Z,13.60
2023-01-17T00:31:14.075Z,11.25
2023-01-17T00:33:41.831Z,11.90
2023-01-17T00:36:10.544Z,11.85
2023-01-17T00:38:40.002Z,16.55
2023-01-17T00:41:11.136Z,14.90
2023-01-17T00:43:57.390Z,18.57
2023-01-17T00:46:44.175Z,16.00
2023-01-17T00:49:30.148Z,14.23
2023-01-17T00:52:16.404Z,8.78
2023-01-17T00:55:02.703Z,14.28
2023-01-17T00:57:48.950Z,14.85
2023-01-17T01:00:37.780Z,12.58
2023-01-17T01:03:30.053Z,12.30
2023-01-17T01:06:17.270Z,12.65
2023-01-17T01:09:03.104Z,11.65
2023-01-17T01:11:49.526Z,11.95
2023-01-17T01:14:35.669Z,14.73
2023-01-17T01:17:21.877Z,15.53
2023-01-17T01:20:08.063Z,12.50
2023-01-17T01:22:54.034Z,11.33
2023-01-17T01:25:40.108Z,23.32
2023-01-17T01:28:33.140Z,13.28
2023-01-17T01:31:24.085Z,12.33
2023-01-17T01:33:55.752Z,13.38
2023-01-17T01:36:35.963Z,14.53
2023-01-17T01:39:21.264Z,16.85
2023-01-17T01:42:05.349Z,20.62
2023-01-17T01:44:44.860Z,19.37
2023-01-17T01:47:40.492Z,14.68
2023-01-17T01:50:14.640Z,10.38
2023-01-17T01:52:48.816Z,13.60
2023-01-17T01:55:33.459Z,11.83
2023-01-17T01:58:21.041Z,11.83
2023-01-17T02:00:51.790Z,15.30
2023-01-17T02:03:30.681Z,14.23
2023-01-17T02:06:21.194Z,12.53
2023-01-17T02:08:54.921Z,11.30
2023-01-17T02:11:37.738Z,10.50
2023-01-17T02:14:14.090Z,11.20
2023-01-17T02:17:12.295Z,13.53
2023-01-17T02:20:20.536Z,10.32
2023-01-17T02:23:37.855Z,10.18
2023-01-17T02:26:50.139Z,9.83
2023-01-17T02:29:57.650Z,15.20
2023-01-17T02:32:39.495Z,9.75
2023-01-17T02:35:15.899Z,10.53
2023-01-17T02:38:13.423Z,9.03
2023-01-17T02:40:55.090Z,7.95
2023-01-17T02:43:24.120Z,8.63
2023-01-17T02:45:51.642Z,10.85
2023-01-17T02:48:23.846Z,9.25
2023-01-17T02:51:12.303Z,8.08
2023-01-17T02:54:05.115Z,10.53
2023-01-17T02:56:40.551Z,10.45
2023-01-17T02:59:13.739Z,8.38
2023-01-17T03:01:49.916Z,11.85
2023-01-17T03:04:31.450Z,9.23
2023-01-17T03:07:03.522Z,10.55
2023-01-17T03:09:32.599Z,10.93
2023-01-17T03:12:02.344Z,10.20
2023-01-17T03:14:33.311Z,8.13
2023-01-17T03:17:00.767Z,10.03
2023-01-17T03:19:28.227Z,9.05
2023-01-17T03:21:55.972Z,10.05
2023-01-17T03:24:23.611Z,12.15
2023-01-17T03:26:51.300Z,11.85
2023-01-17T03:29:18.543Z,14.87
2023-01-17T03:31:46.207Z,10.90
2023-01-17T03:34:13.963Z,12.00
2023-01-17T03:36:41.669Z,14.23
2023-01-17T03:39:09.499Z,13.72
2023-01-17T03:41:36.975Z,9.65
2023-01-17T03:44:05.133Z,11.63
2023-01-17T03:46:32.576Z,12.65
2023-01-17T03:49:00.396Z,20.50
2023-01-17T03:51:28.115Z,15.60
2023-01-17T03:53:59.061Z,29.30
2023-01-17T03:56:26.580Z,24.80
2023-01-17T03:59:00.218Z,13.55
2023-01-17T04:01:34.154Z,16.27
2023-01-17T04:04:10.243Z,13.32
2023-01-17T04:06:47.493Z,9.60
2023-01-17T04:09:21.248Z,7.45
2023-01-17T04:14:23.545Z,8.55
2023-01-17T04:16:51.225Z,10.40
2023-01-17T04:19:19.285Z,11.80
2023-01-17T04:21:46.990Z,12.95
2023-01-17T04:24:15.863Z,17.95
2023-01-17T04:26:44.027Z,17.20
2023-01-17T04:29:14.127Z,14.78
2023-01-17T04:31:51.132Z,14.87
2023-01-17T04:34:25.353Z,14.53
2023-01-17T04:36:56.303Z,16.32
2023-01-17T04:39:24.040Z,24.02
2023-01-17T04:41:51.633Z,16.15
2023-01-17T04:44:19.388Z,16.17
2023-01-17T04:46:46.825Z,18.52
2023-01-17T04:49:14.491Z,16.73
2023-01-17T04:51:42.522Z,17.00
2023-01-17T04:54:09.903Z,17.12
2023-01-17T04:56:37.603Z,18.32
2023-01-17T04:59:05.126Z,19.37
2023-01-17T05:01:32.751Z,19.40
2023-01-17T05:04:00.190Z,24.20
2023-01-17T05:06:27.731Z,27.00
2023-01-17T05:08:55.312Z,19.27
2023-01-17T05:11:22.891Z,15.63
2023-01-17T05:13:50.614Z,18.15
2023-01-17T05:16:19.310Z,17.42
2023-01-17T05:18:46.986Z,20.57
2023-01-17T05:21:14.712Z,42.35
2023-01-17T05:23:42.561Z,84.60
2023-01-17T05:26:10.238Z,68.72
2023-01-17T05:28:37.809Z,54.83
2023-01-17T05:31:05.887Z,35.38
2023-01-17T05:33:33.421Z,25.80
2023-01-17T05:36:01.236Z,22.50
2023-01-17T05:38:29.076Z,20.40
2023-01-17T05:41:04.328Z,29.30
2023-01-17T05:43:32.050Z,21.73
2023-01-17T05:45:59.793Z,21.45
2023-01-17T05:48:27.340Z,19.23
2023-01-17T05:50:55.557Z,21.27
2023-01-17T05:53:23.094Z,22.13
2023-01-17T05:55:50.828Z,23.00
2023-01-17T05:58:21.718Z,28.73
2023-01-17T06:00:49.758Z,27.25
2023-01-17T06:03:17.689Z,28.15
2023-01-17T06:05:46.393Z,31.25
2023-01-17T06:08:13.891Z,28.23
2023-01-17T06:10:41.494Z,21.20
2023-01-17T06:13:13.733Z,20.97
2023-01-17T06:15:41.670Z,23.57
2023-01-17T06:18:13.357Z,31.77
2023-01-17T06:20:41.612Z,26.82
2023-01-17T06:23:13.777Z,25.50
2023-01-17T06:25:44.218Z,27.50
2023-01-17T06:28:15.672Z,26.17
2023-01-17T06:30:44.088Z,25.15
2023-01-17T06:33:12.795Z,33.13
2023-01-17T06:35:50.632Z,32.88
2023-01-17T06:38:18.862Z,34.13
2023-01-17T06:40:46.558Z,26.50
2023-01-17T06:43:14.232Z,24.47
2023-01-17T06:45:41.898Z,21.97
2023-01-17T06:48:09.723Z,21.97
2023-01-17T06:50:37.744Z,22.95
2023-01-17T06:53:06.826Z,20.27
2023-01-17T06:55:36.827Z,17.67
2023-01-17T06:58:04.619Z,18.62
2023-01-17T07:00:34.410Z,22.22
2023-01-17T07:03:02.771Z,22.42
2023-01-17T07:05:30.660Z,32.38
2023-01-17T07:07:58.117Z,33.20
2023-01-17T07:10:25.766Z,31.02
2023-01-17T07:12:59.749Z,34.65
2023-01-17T07:15:27.562Z,35.30
2023-01-17T07:17:55.209Z,36.88
2023-01-17T07:20:22.703Z,37.28
2023-01-17T07:22:50.173Z,41.53
2023-01-17T07:25:19.599Z,42.05
2023-01-17T07:27:47.412Z,43.68
2023-01-17T07:30:15.547Z,44.13
2023-01-17T07:32:43.495Z,31.82
2023-01-17T07:35:10.859Z,29.35
2023-01-17T07:37:39.162Z,23.62
2023-01-17T07:40:07.846Z,23.52
2023-01-17T07:42:35.419Z,21.37
2023-01-17T07:45:03.282Z,18.52
2023-01-17T07:47:32.801Z,22.07
2023-01-17T07:50:01.395Z,23.87
2023-01-17T07:52:28.938Z,20.15
2023-01-17T07:54:56.640Z,42.15
2023-01-17T07:57:24.404Z,61.60
2023-01-17T07:59:52.243Z,51.00
2023-01-17T08:02:23.303Z,36.35
2023-01-17T08:04:51.068Z,30.30
2023-01-17T08:07:18.756Z,31.48
2023-01-17T08:09:48.148Z,24.30
2023-01-17T08:12:16.706Z,16.10
2023-01-17T08:14:44.383Z,28.73
2023-01-17T08:17:17.603Z,31.23
2023-01-17T08:19:45.322Z,18.80
2023-01-17T08:22:12.742Z,16.35
2023-01-17T08:24:41.587Z,17.10
2023-01-17T08:27:09.421Z,37.10
2023-01-17T08:29:36.962Z,41.23
2023-01-17T08:32:04.846Z,31.68
2023-01-17T08:34:33.754Z,14.85
2023-01-17T08:37:01.564Z,18.37
2023-01-17T08:39:29.176Z,26.45
2023-01-17T08:41:56.953Z,20.25
2023-01-17T08:44:24.781Z,24.52
2023-01-17T08:46:52.554Z,30.32
2023-01-17T08:49:20.234Z,31.82
2023-01-17T08:51:47.786Z,29.10
2023-01-17T08:54:16.136Z,24.07
2023-01-17T08:56:43.842Z,31.40
2023-01-17T08:59:11.904Z,35.40
2023-01-17T09:01:44.495Z,25.55
2023-01-17T09:04:12.659Z,21.50
2023-01-17T09:06:44.779Z,21.93
2023-01-17T09:09:13.228Z,22.67
2023-01-17T09:11:41.139Z,50.75
2023-01-17T09:14:13.426Z,37.28
2023-01-17T09:16:41.040Z,27.90
2023-01-17T09:19:09.815Z,38.78
2023-01-17T09:21:37.537Z,28.38
2023-01-17T09:24:05.513Z,24.50
2023-01-17T09:26:33.355Z,42.75
2023-01-17T09:29:01.055Z,66.20
2023-01-17T09:31:28.630Z,38.63
2023-01-17T09:33:58.240Z,40.05
2023-01-17T09:36:29.362Z,47.78
2023-01-17T09:38:58.641Z,38.30
2023-01-17T09:42:00.123Z,35.40
2023-01-17T09:44:35.942Z,30.27
2023-01-17T09:47:39.721Z,74.85
2023-01-17T09:50:33.415Z,52.25
2023-01-17T09:53:06.026Z,48.70
2023-01-17T09:55:59.053Z,57.87
2023-01-17T09:58:38.156Z,54.23
2023-01-17T10:01:23.394Z,42.48
2023-01-17T10:04:20.968Z,35.20
2023-01-17T10:07:09.043Z,35.95
2023-01-17T10:10:04.821Z,39.67
2023-01-17T10:16:10.251Z,44.50
2023-01-17T10:19:24.567Z,53.75
2023-01-17T10:22:03.748Z,29.15
2023-01-17T10:25:00.574Z,27.70
2023-01-17T10:27:36.646Z,26.62
2023-01-17T10:30:24.111Z,29.15
2023-01-17T10:32:52.010Z,27.37
2023-01-17T10:35:27.072Z,32.70
2023-01-17T10:37:58.165Z,48.45
2023-01-17T10:40:50.786Z,44.50
2023-01-17T10:43:29.744Z,43.90
2023-01-17T10:45:58.041Z,42.58
2023-01-17T10:48:38.838Z,53.25
2023-01-17T10:51:17.873Z,50.75
2023-01-17T10:54:01.842Z,34.33
2023-01-17T10:56:30.413Z,35.88
2023-01-17T10:59:21.934Z,23.12
2023-01-17T11:01:51.220Z,21.93
2023-01-17T11:04:27.127Z,26.90
2023-01-17T11:07:18.656Z,28.05
2023-01-17T11:09:55.532Z,20.43
2023-01-17T11:12:45.102Z,14.83
2023-01-17T11:15:19.259Z,24.25
2023-01-17T11:17:55.281Z,16.67
2023-01-17T11:20:45.567Z,10.58
2023-01-17T11:23:21.496Z,18.52
2023-01-17T11:26:01.948Z,9.00
2023-01-17T11:28:32.797Z,7.53
2023-01-17T11:31:08.397Z,7.30
2023-01-17T11:33:51.164Z,6.78
2023-01-17T11:36:31.083Z,10.00
2023-01-17T11:39:18.759Z,8.55
2023-01-17T11:41:47.599Z,9.18
2023-01-17T11:44:35.808Z,7.90
2023-01-17T11:47:16.413Z,6.70
2023-01-17T11:49:47.000Z,6.22
2023-01-17T11:52:33.051Z,9.80
2023-01-17T11:55:00.865Z,6.72
2023-01-17T11:57:32.751Z,6.28
2023-01-17T12:00:20.585Z,6.25
2023-01-17T12:03:05.511Z,3.95
2023-01-17T12:05:53.200Z,4.87
2023-01-17T12:08:57.577Z,6.22
2023-01-17T12:12:07.826Z,7.25
2023-01-17T12:15:13.139Z,4.80
2023-01-17T12:18:05.620Z,5.22
2023-01-17T12:20:55.313Z,5.20
2023-01-17T12:23:47.798Z,4.40
2023-01-17T12:26:36.396Z,4.12
2023-01-17T12:29:32.038Z,4.00
2023-01-17T12:32:32.002Z,3.27
2023-01-17T12:35:07.924Z,2.87
2023-01-17T12:37:45.472Z,5.33
2023-01-17T12:40:24.028Z,3.27
2023-01-17T12:43:19.226Z,5.55
2023-01-17T12:45:49.409Z,3.20
2023-01-17T12:48:20.667Z,2.62
2023-01-17T12:50:56.777Z,4.22
2023-01-17T12:53:52.383Z,2.67
2023-01-17T12:56:37.133Z,3.22
2023-01-17T12:59:25.870Z,6.40
2023-01-17T13:01:59.005Z,3.10
2023-01-17T13:04:46.881Z,4.28
2023-01-17T13:07:24.683Z,4.17
2023-01-17T13:10:03.656Z,4.60
2023-01-17T13:12:33.569Z,6.45
2023-01-17T13:15:03.265Z,12.45
2023-01-17T13:17:52.962Z,15.13
2023-01-17T13:20:32.385Z,9.60
2023-01-17T13:23:51.259Z,5.90
2023-01-17T13:26:50.840Z,7.92
2023-01-17T13:29:52.732Z,7.62
2023-01-17T13:32:45.713Z,16.95
2023-01-17T13:35:28.115Z,8.73
2023-01-17T13:38:24.587Z,5.05
2023-01-17T13:41:00.866Z,5.08
2023-01-17T13:43:39.196Z,4.60
2023-01-17T13:46:07.778Z,4.92
2023-01-17T13:48:37.829Z,6.00
2023-01-17T13:51:08.639Z,6.87
2023-01-17T13:53:44.443Z,4.03
2023-01-17T13:56:23.944Z,5.00
2023-01-17T13:59:01.666Z,5.15
2023-01-17T14:01:46.556Z,5.15
2023-01-17T14:04:14.349Z,5.70
2023-01-17T14:06:46.314Z,4.12
2023-01-17T14:09:28.217Z,4.28
2023-01-17T14:12:19.785Z,7.50
2023-01-17T14:14:51.401Z,7.72
2023-01-17T14:17:26.340Z,7.35
2023-01-17T14:20:11.968Z,7.62
2023-01-17T14:22:50.666Z,11.25
2023-01-17T14:25:24.520Z,12.78
2023-01-17T14:27:56.851Z,59.03
2023-01-17T14:30:34.643Z,62.17
2023-01-17T14:33:29.099Z,45.63
2023-01-17T14:36:04.750Z,21.40
2023-01-17T14:38:34.272Z,18.80
2023-01-17T14:41:07.237Z,17.85
2023-01-17T14:43:39.034Z,19.95
2023-01-17T14:46:30.606Z,13.72
2023-01-17T14:49:09.409Z,16.17
2023-01-17T14:51:38.379Z,5.37
2023-01-17T14:54:17.609Z,4.87
2023-01-17T14:56:47.173Z,9.18
2023-01-17T14:59:21.534Z,9.55
2023-01-17T15:02:08.640Z,11.15
2023-01-17T15:04:33.647Z,35.40
2023-01-17T15:07:01.353Z,45.25
2023-01-17T15:09:34.239Z,67.15
2023-01-17T15:12:02.409Z,61.97
2023-01-17T15:14:34.557Z,48.87
2023-01-17T15:17:23.827Z,20.92
2023-01-17T15:20:01.120Z,15.20
2023-01-17T15:22:29.490Z,13.50
2023-01-17T15:24:58.053Z,30.25
2023-01-17T15:27:26.206Z,16.97
2023-01-17T15:29:56.005Z,14.47
2023-01-17T15:32:30.068Z,13.43
2023-01-17T15:35:00.608Z,22.65
2023-01-17T15:37:33.325Z,32.05
2023-01-17T15:40:23.577Z,37.95
2023-01-17T15:42:56.124Z,33.92
2023-01-17T15:45:28.407Z,28.57
2023-01-17T15:47:57.075Z,24.65
2023-01-17T15:50:31.616Z,21.30
2023-01-17T15:53:04.249Z,12.85
2023-01-17T15:55:34.886Z,10.87
2023-01-17T15:58:04.982Z,11.40
2023-01-17T16:00:41.325Z,20.45
2023-01-17T16:03:29.299Z,30.68
2023-01-17T16:06:02.504Z,38.92
2023-01-17T16:08:39.216Z,55.98
2023-01-17T16:11:11.107Z,43.42
2023-01-17T16:13:40.907Z,38.10
2023-01-17T16:16:14.141Z,33.55
2023-01-17T16:18:42.536Z,29.37
2023-01-17T16:21:23.901Z,32.38
2023-01-17T16:23:51.862Z,36.68
2023-01-17T16:26:19.573Z,37.60
2023-01-17T16:28:48.323Z,27.77
2023-01-17T16:31:17.434Z,26.75
2023-01-17T16:33:45.630Z,24.47
2023-01-17T16:36:16.146Z,26.55
2023-01-17T16:38:45.348Z,36.15
2023-01-17T16:41:12.907Z,31.82
2023-01-17T16:43:40.565Z,22.40
2023-01-17T16:46:11.416Z,21.42
2023-01-17T16:48:39.209Z,21.93
2023-01-17T16:51:07.918Z,18.07
2023-01-17T16:53:37.062Z,16.48
2023-01-17T16:56:13.036Z,16.17
2023-01-17T16:58:41.452Z,31.68
2023-01-17T17:01:15.224Z,17.48
2023-01-17T17:03:44.072Z,18.35
2023-01-17T17:06:12.514Z,19.95
2023-01-17T17:08:40.154Z,22.85
2023-01-17T17:11:14.891Z,22.13
2023-01-17T17:13:48.244Z,23.20
2023-01-17T17:16:26.784Z,18.55
2023-01-17T17:18:59.242Z,17.23
2023-01-17T17:21:29.459Z,21.25
2023-01-17T17:23:59.772Z,18.87
2023-01-17T17:26:36.493Z,18.55
2023-01-17T17:29:05.490Z,17.30
2023-01-17T17:31:33.562Z,19.85
2023-01-17T17:34:03.319Z,21.77
2023-01-17T17:36:31.285Z,25.17
2023-01-17T17:39:01.269Z,28.80
2023-01-17T17:41:32.898Z,24.30
2023-01-17T17:44:02.424Z,38.30
2023-01-17T17:46:31.222Z,51.88
2023-01-17T17:48:59.570Z,27.80
2023-01-17T17:51:37.226Z,23.85
2023-01-17T17:54:11.586Z,26.85
2023-01-17T17:56:40.375Z,18.02
2023-01-17T17:59:09.631Z,15.98
2023-01-17T18:01:40.525Z,25.45
2023-01-17T18:04:08.853Z,22.27
2023-01-17T18:06:38.128Z,57.30
2023-01-17T18:09:07.730Z,57.55
2023-01-17T18:11:38.222Z,55.05
2023-01-17T18:14:10.498Z,37.05
2023-01-17T18:16:41.902Z,34.90
2023-01-17T18:19:16.155Z,36.28
2023-01-17T18:21:44.225Z,28.30
2023-01-17T18:24:18.982Z,29.20
2023-01-17T18:26:51.457Z,41.48
2023-01-17T18:29:22.355Z,46.67
2023-01-17T18:31:51.689Z,41.70
2023-01-17T18:34:23.340Z,27.87
2023-01-17T18:36:51.774Z,21.27
2023-01-17T18:39:24.033Z,18.50
2023-01-17T18:41:52.330Z,17.20
2023-01-17T18:44:21.989Z,17.80
2023-01-17T18:46:58.319Z,13.00
2023-01-17T18:49:26.122Z,11.90
2023-01-17T18:51:53.732Z,9.35
2023-01-17T18:54:21.464Z,10.75
2023-01-17T18:56:49.136Z,12.13
2023-01-17T18:59:19.388Z,16.12
2023-01-17T19:01:47.550Z,22.95
2023-01-17T19:04:17.023Z,19.27
2023-01-17T19:06:47.372Z,19.82
2023-01-17T19:09:16.365Z,14.20
2023-01-17T19:11:45.064Z,13.43
2023-01-17T19:14:13.366Z,14.10
2023-01-17T19:16:42.223Z,20.50
2023-01-17T19:19:14.441Z,23.20
2023-01-17T19:21:42.512Z,22.50
2023-01-17T19:24:12.529Z,18.17
2023-01-17T19:26:41.090Z,22.27
2023-01-17T19:29:09.072Z,17.55
2023-01-17T19:31:43.278Z,15.23
2023-01-17T19:34:16.915Z,20.97
2023-01-17T19:39:12.026Z,17.90
2023-01-17T19:41:45.115Z,20.85
2023-01-17T19:44:14.490Z,31.20
2023-01-17T19:46:43.255Z,29.45
2023-01-17T19:49:11.156Z,32.23
2023-01-17T19:51:39.293Z,37.13
2023-01-17T19:54:07.715Z,40.63
2023-01-17T19:56:35.538Z,29.95
2023-01-17T19:59:03.288Z,18.80
2023-01-17T20:01:33.290Z,27.13
2023-01-17T20:04:02.940Z,34.50
2023-01-17T20:06:34.942Z,28.15
2023-01-17T20:09:04.233Z,29.65
2023-01-17T20:11:32.378Z,29.60
2023-01-17T20:14:00.412Z,13.55
2023-01-17T20:16:31.327Z,16.12
2023-01-17T20:19:01.643Z,37.42
2023-01-17T20:21:31.002Z,27.95
2023-01-17T20:24:02.477Z,36.00
2023-01-17T20:26:36.505Z,30.55
2023-01-17T20:29:14.162Z,34.38
2023-01-17T20:31:42.818Z,22.42
2023-01-17T20:34:13.549Z,19.75
2023-01-17T20:36:41.891Z,21.48
2023-01-17T20:39:11.327Z,23.75
2023-01-17T20:41:41.771Z,17.77
2023-01-17T20:44:13.359Z,10.55
2023-01-17T20:46:41.520Z,15.43
2023-01-17T20:49:15.996Z,24.32
2023-01-17T20:51:45.650Z,26.48
2023-01-17T20:54:17.652Z,15.43
2023-01-17T20:56:46.870Z,18.37
2023-01-17T20:59:21.138Z,21.68
2023-01-17T21:01:50.140Z,24.55
2023-01-17T21:04:20.278Z,27.90
2023-01-17T21:06:49.690Z,17.75
2023-01-17T21:09:19.375Z,15.30
2023-01-17T21:11:48.148Z,14.47
2023-01-17T21:14:15.810Z,22.02
2023-01-17T21:16:43.965Z,21.15
2023-01-17T21:19:14.340Z,18.85
2023-01-17T21:21:41.782Z,24.10
2023-01-17T21:24:11.440Z,18.23
2023-01-17T21:26:40.849Z,15.15
2023-01-17T21:29:08.681Z,12.35
2023-01-17T21:31:38.041Z,13.93
2023-01-17T21:34:09.342Z,10.55
2023-01-17T21:36:41.682Z,9.53
2023-01-17T21:39:16.223Z,9.05
2023-01-17T21:41:47.544Z,10.43
2023-01-17T21:44:19.597Z,8.00
2023-01-17T21:46:48.162Z,7.12
2023-01-17T21:49:16.675Z,7.87
2023-01-17T21:51:53.210Z,7.35
2023-01-17T21:54:31.053Z,9.10
2023-01-17T21:57:16.792Z,8.35
2023-01-17T21:59:44.427Z,8.78
2023-01-17T22:02:11.988Z,8.95
2023-01-17T22:04:39.953Z,8.58
2023-01-17T22:07:07.338Z,11.50
2023-01-17T22:09:34.827Z,17.87
2023-01-17T22:12:02.390Z,8.23
2023-01-17T22:14:30.012Z,9.35
2023-01-17T22:16:57.688Z,10.20
2023-01-17T22:19:25.111Z,10.08
2023-01-17T22:21:54.262Z,14.18
2023-01-17T22:24:21.900Z,23.38
2023-01-17T22:26:49.320Z,16.85
2023-01-17T22:29:18.405Z,14.03
2023-01-17T22:31:46.218Z,16.23
2023-01-17T22:34:14.930Z,10.05
2023-01-17T22:36:42.268Z,10.25
2023-01-17T22:39:10.302Z,10.18
2023-01-17T22:41:38.556Z,8.68
2023-01-17T22:44:07.091Z,9.08
2023-01-17T22:46:40.945Z,10.43
2023-01-17T22:49:12.755Z,11.30
2023-01-17T22:51:40.121Z,7.67
2023-01-17T22:54:07.739Z,7.05
2023-01-17T22:56:35.937Z,6.80
2023-01-17T22:59:05.266Z,6.90
2023-01-17T23:01:32.975Z,6.50
2023-01-17T23:04:03.593Z,6.65
2023-01-17T23:06:37.952Z,8.60
2023-01-17T23:09:13.525Z,7.30
2023-01-17T23:11:49.383Z,7.03
2023-01-17T23:14:24.638Z,8.00
2023-01-17T23:17:14.688Z,13.68
2023-01-17T23:19:51.488Z,10.65
2023-01-17T23:22:26.229Z,7.22
2023-01-17T23:25:04.619Z,8.80
2023-01-17T23:27:58.024Z,6.58
2023-01-17T23:30:36.972Z,7.15
2023-01-17T23:33:14.794Z,12.88
2023-01-17T23:35:45.705Z,9.08
2023-01-17T23:38:28.267Z,6.10
2023-01-17T23:41:26.462Z,7.58
2023-01-17T23:43:56.997Z,8.38
2023-01-17T23:46:25.927Z,9.83
2023-01-17T23:48:54.374Z,8.95
2023-01-17T23:51:22.301Z,7.62
2023-01-17T23:53:51.556Z,10.20
2023-01-17T23:56:22.626Z,13.03
2023-01-17T23:58:50.712Z,15.65
